Terminal Aerodrome Forecast
Issued by NWS Grand Forks, ND

Home | Current Version | Previous Version | Text Only | Print | Product List | Glossary On
Versions: 1 2 3 4 5 6 7 8 9 10 11 12 13 14 15 16
000
FTUS43 KFGF 271100
TAFGFK
TAF
KGFK 271127Z 2712/2812 VRB04KT P6SM BKN250
     FM272100 33006KT P6SM BKN100
     FM280000 35014KT P6SM -SHRA BKN040
     FM280700 33005KT P6SM SCT040=

USA.gov is the U.S. government's official web portal to all federal, state and local government web resources and services.